Time;durP1;ratioP1;P1;durP2;ratioP2;P2;SDS_P1;SDS_P2;PMS_P1;PMS_P2;Temp;Humidity;BMP_temperature;BMP_pressure;BME280_temperature;BME280_humidity;BME280_pressure;Samples;Min_cycle;Max_cycle;Signal;HPM_P1;HPM_P2
2024/01/08 00:01:12;;;;;;;5.25;3.50;;;-0.80;99.90;;;;;;6241078;22;20016;-80
2024/01/08 00:03:44;;;;;;;6.10;3.65;;;-0.80;99.90;;;;;;6243208;22;20019;-80
2024/01/08 00:06:09;;;;;;;8.48;4.15;;;-0.80;99.90;;;;;;6242954;22;20061;-80
2024/01/08 00:08:36;;;;;;;7.40;3.65;;;-0.80;99.90;;;;;;6242685;22;20348;-79
2024/01/08 00:11:01;;;;;;;;;;;-0.80;99.90;;;;;;6270898;22;20011;-80
2024/01/08 00:13:27;;;;;;;6.03;3.88;;;-0.80;99.90;;;;;;6270707;22;20020;-80
2024/01/08 00:15:52;;;;;;;6.40;3.47;;;-0.80;99.90;;;;;;6242956;22;20011;-80
2024/01/08 00:18:20;;;;;;;4.70;3.00;;;-0.90;99.90;;;;;;6270334;22;20023;-79
2024/01/08 00:20:46;;;;;;;6.35;3.70;;;-0.90;99.90;;;;;;6269693;22;20016;-80
2024/01/08 00:23:11;;;;;;;6.17;3.60;;;-0.90;99.90;;;;;;6269452;22;20016;-80
2024/01/08 00:25:37;;;;;;;5.40;3.60;;;-1.00;99.90;;;;;;6269629;22;20008;-79
2024/01/08 00:28:04;;;;;;;7.47;3.80;;;-1.10;99.90;;;;;;6270379;22;20226;-80
2024/01/08 00:30:29;;;;;;;9.27;4.70;;;-1.10;99.90;;;;;;6242491;22;20558;-80
2024/01/08 00:32:55;;;;;;;6.40;3.90;;;-1.20;99.90;;;;;;6217132;22;20069;-80
2024/01/08 00:35:20;;;;;;;6.77;4.07;;;-1.20;99.90;;;;;;6270464;22;20227;-80
2024/01/08 00:37:46;;;;;;;6.15;3.88;;;-1.30;99.90;;;;;;6218733;22;20011;-80
2024/01/08 00:40:12;;;;;;;6.32;3.67;;;-1.30;99.90;;;;;;6271675;22;20363;-80
2024/01/08 00:42:38;;;;;;;6.07;3.97;;;-1.30;99.90;;;;;;6272285;22;20012;-80
2024/01/08 00:45:05;;;;;;;6.57;4.10;;;-1.40;99.90;;;;;;6244446;22;20012;-80
2024/01/08 00:47:30;;;;;;;8.00;4.05;;;-1.40;99.90;;;;;;6244639;22;20024;-79
2024/01/08 00:49:56;;;;;;;7.53;4.30;;;-1.50;99.90;;;;;;6239798;22;20416;-80
2024/01/08 00:52:22;;;;;;;8.95;4.07;;;-1.50;99.90;;;;;;6239920;23;20175;-80
2024/01/08 00:54:47;;;;;;;6.70;3.80;;;-1.50;99.90;;;;;;6241707;23;20091;-80
2024/01/08 00:57:13;;;;;;;8.73;4.85;;;-1.50;99.90;;;;;;6240621;23;20259;-80
2024/01/08 00:59:39;;;;;;;8.52;4.55;;;-1.60;99.90;;;;;;6239818;23;20082;-80
2024/01/08 01:02:04;;;;;;;5.35;3.72;;;-1.50;99.90;;;;;;6240115;23;20091;-80
2024/01/08 01:04:30;;;;;;;6.47;4.10;;;-1.60;99.90;;;;;;6238962;23;20050;-80
2024/01/08 01:06:55;;;;;;;6.38;4.25;;;-1.70;99.90;;;;;;6241860;23;20431;-80
2024/01/08 01:09:21;;;;;;;7.07;4.40;;;-1.60;99.90;;;;;;6240055;23;20099;-80
2024/01/08 01:11:47;;;;;;;6.80;3.90;;;-1.60;99.90;;;;;;6238658;23;20050;-80
2024/01/08 01:14:12;;;;;;;9.60;4.67;;;-1.70;99.90;;;;;;6239833;23;20103;-79
2024/01/08 01:16:38;;;;;;;4.87;3.27;;;-1.70;99.90;;;;;;6239564;23;20267;-81
2024/01/08 01:19:03;;;;;;;8.00;4.55;;;-1.70;99.90;;;;;;6241598;23;20016;-81
2024/01/08 01:21:29;;;;;;;7.25;4.55;;;-1.70;99.90;;;;;;6239208;23;20091;-81
2024/01/08 01:23:55;;;;;;;6.57;4.30;;;-1.70;99.90;;;;;;6241990;23;20044;-81
2024/01/08 01:26:21;;;;;;;8.35;4.57;;;-1.80;99.90;;;;;;6238152;23;20318;-81
2024/01/08 01:28:46;;;;;;;6.70;4.45;;;-1.70;99.90;;;;;;6239582;23;20024;-81
2024/01/08 01:31:12;;;;;;;6.68;4.20;;;-1.70;99.90;;;;;;6239465;23;20028;-82
2024/01/08 01:33:38;;;;;;;9.23;5.15;;;-1.70;99.90;;;;;;6240614;23;20055;-80
2024/01/08 01:36:05;;;;;;;8.32;4.40;;;-1.60;99.90;;;;;;6239619;23;20349;-82
2024/01/08 01:38:31;;;;;;;7.60;4.57;;;-1.60;99.90;;;;;;6241468;23;20008;-81
2024/01/08 01:40:57;;;;;;;4.75;3.30;;;-1.50;99.90;;;;;;6237472;23;20092;-82
2024/01/08 01:43:24;;;;;;;9.40;5.30;;;-1.50;99.90;;;;;;6239552;23;20008;-81
2024/01/08 01:45:54;;;;;;;6.45;4.45;;;-1.50;99.90;;;;;;6238944;23;20090;-81
2024/01/08 01:48:21;;;;;;;8.05;4.80;;;-1.40;99.90;;;;;;6213082;23;20012;-81
2024/01/08 01:50:47;;;;;;;7.93;4.80;;;-1.40;99.90;;;;;;6240897;22;20445;-81
2024/01/08 01:53:13;;;;;;;8.02;5.00;;;-1.40;99.90;;;;;;6241783;23;20329;-81
2024/01/08 01:55:40;;;;;;;8.52;5.05;;;-1.40;99.90;;;;;;6240328;23;20012;-82
2024/01/08 01:58:06;;;;;;;9.57;5.00;;;-1.30;99.90;;;;;;6241106;23;20061;-81
2024/01/08 02:00:32;;;;;;;8.18;4.88;;;-1.30;99.90;;;;;;6239017;23;20014;-81
2024/01/08 02:02:58;;;;;;;;;;;-1.40;99.90;;;;;;6213976;23;20020;-81
2024/01/08 02:05:24;;;;;;;7.15;4.72;;;-1.30;99.90;;;;;;6238033;23;19922;-81
2024/01/08 02:07:51;;;;;;;10.75;5.68;;;-1.30;99.90;;;;;;6240965;23;20074;-81
2024/01/08 02:10:17;;;;;;;8.85;5.45;;;-1.30;99.90;;;;;;6240838;23;20039;-81
2024/01/08 02:12:43;;;;;;;9.77;5.32;;;-1.20;99.90;;;;;;6238503;23;20044;-82
2024/01/08 02:15:09;;;;;;;7.57;5.10;;;-1.20;99.90;;;;;;6213985;23;20087;-81
2024/01/08 02:17:34;;;;;;;10.43;4.75;;;-1.20;99.90;;;;;;6238670;23;20682;-81
2024/01/08 02:20:00;;;;;;;7.35;5.03;;;-1.20;99.90;;;;;;6239325;23;20020;-82
2024/01/08 02:22:25;;;;;;;9.15;5.57;;;-1.20;99.90;;;;;;6239895;23;20246;-80
2024/01/08 02:24:51;;;;;;;9.00;5.30;;;-1.20;99.90;;;;;;6237904;23;20115;-80
2024/01/08 02:27:17;;;;;;;8.02;5.47;;;-1.10;99.90;;;;;;6237610;23;20012;-80
2024/01/08 02:29:43;;;;;;;8.00;5.03;;;-1.10;99.90;;;;;;6238204;23;20016;-80
2024/01/08 02:32:10;;;;;;;10.37;7.13;;;-1.10;99.90;;;;;;6238704;23;20436;-80
2024/01/08 02:34:36;;;;;;;10.77;6.05;;;-1.10;99.90;;;;;;6238692;23;20362;-80
2024/01/08 02:37:02;;;;;;;8.95;5.70;;;-1.00;99.90;;;;;;6238265;23;20016;-80
2024/01/08 02:39:27;;;;;;;9.90;5.38;;;-1.00;99.90;;;;;;6236440;23;20432;-80
2024/01/08 02:41:53;;;;;;;9.43;5.63;;;-1.00;99.90;;;;;;6237879;23;20019;-81
2024/01/08 02:44:18;;;;;;;8.05;4.60;;;-1.00;99.90;;;;;;6236869;23;20495;-80
2024/01/08 02:46:44;;;;;;;8.07;5.25;;;-1.00;99.90;;;;;;6236639;23;20104;-80
2024/01/08 02:49:09;;;;;;;9.10;5.63;;;-0.90;99.90;;;;;;6237020;23;20012;-80
2024/01/08 02:51:35;;;;;;;9.23;5.47;;;-0.90;99.90;;;;;;6213899;23;20024;-80
2024/01/08 02:54:01;;;;;;;9.60;5.70;;;-0.90;99.90;;;;;;6238370;23;20278;-80
2024/01/08 02:56:26;;;;;;;11.23;6.17;;;-0.80;99.90;;;;;;6236802;23;20299;-80
2024/01/08 02:58:52;;;;;;;8.17;5.20;;;-0.80;99.90;;;;;;6237938;23;20726;-80
2024/01/08 03:01:17;;;;;;;10.53;5.30;;;-0.80;99.90;;;;;;6237894;23;20246;-81
2024/01/08 03:03:43;;;;;;;7.43;5.00;;;-0.80;99.90;;;;;;6237811;23;20019;-81
2024/01/08 03:06:09;;;;;;;6.27;4.67;;;-0.80;99.90;;;;;;6234344;23;20024;-80
2024/01/08 03:08:34;;;;;;;7.85;4.80;;;-0.80;99.90;;;;;;6239065;23;20090;-81
2024/01/08 03:11:00;;;;;;;8.00;4.67;;;-0.80;99.90;;;;;;6236356;23;20099;-81
2024/01/08 03:13:25;;;;;;;6.20;3.88;;;-0.70;99.90;;;;;;6238999;23;20445;-80
2024/01/08 03:15:51;;;;;;;4.77;3.00;;;-0.60;99.90;;;;;;6213334;23;20019;-80
2024/01/08 03:18:17;;;;;;;7.60;4.20;;;-0.60;99.90;;;;;;6239758;23;20296;-81
2024/01/08 03:20:42;;;;;;;7.07;4.40;;;-0.60;99.90;;;;;;6238638;23;20012;-81
2024/01/08 03:23:09;;;;;;;10.00;5.03;;;-0.60;99.90;;;;;;6238150;23;20024;-81
2024/01/08 03:25:35;;;;;;;;;;;-0.50;99.90;;;;;;6237248;23;20008;-81
2024/01/08 03:28:01;;;;;;;6.32;4.50;;;-0.50;99.90;;;;;;6240143;23;20331;-80
2024/01/08 03:30:26;;;;;;;13.05;6.25;;;-0.50;99.90;;;;;;6239665;23;20095;-82
2024/01/08 03:32:52;;;;;;;8.43;4.82;;;-0.50;99.90;;;;;;6238110;23;20035;-81
2024/01/08 03:35:18;;;;;;;6.53;4.35;;;-0.50;99.90;;;;;;6239096;23;20012;-81
2024/01/08 03:37:44;;;;;;;9.95;4.97;;;-0.50;99.90;;;;;;6210792;23;20019;-80
2024/01/08 03:40:10;;;;;;;8.65;4.95;;;-0.60;99.90;;;;;;6237591;23;20023;-80
2024/01/08 03:42:36;;;;;;;7.55;4.57;;;-0.50;99.90;;;;;;6238928;23;20321;-80
2024/01/08 03:45:02;;;;;;;7.28;4.53;;;-0.50;99.90;;;;;;6237142;23;20040;-80
2024/01/08 03:47:27;;;;;;;8.32;5.03;;;-0.50;99.90;;;;;;6212321;23;20031;-80
2024/01/08 03:49:54;;;;;;;7.53;4.50;;;-0.50;99.90;;;;;;6237456;22;20033;-79
2024/01/08 03:52:20;;;;;;;7.85;4.68;;;-0.50;99.90;;;;;;6237741;23;20507;-80
2024/01/08 03:54:46;;;;;;;7.60;5.03;;;-0.50;99.90;;;;;;6238595;23;20206;-80
2024/01/08 03:57:11;;;;;;;8.30;4.97;;;-0.50;99.90;;;;;;6239265;23;20755;-79
2024/01/08 03:59:37;;;;;;;6.83;4.10;;;-0.60;99.90;;;;;;6238470;23;20245;-79
2024/01/08 04:02:02;;;;;;;9.45;4.50;;;-0.60;99.90;;;;;;6238404;23;20085;-80
2024/01/08 04:04:29;;;;;;;6.78;4.30;;;-0.50;99.90;;;;;;6238246;23;20036;-80
2024/01/08 04:06:54;;;;;;;8.10;4.50;;;-0.50;99.90;;;;;;6237795;23;20042;-80
2024/01/08 04:09:20;;;;;;;6.88;4.30;;;-0.50;99.90;;;;;;6237917;23;20091;-80
2024/01/08 04:11:46;;;;;;;5.47;3.10;;;-0.50;99.90;;;;;;6212375;23;20023;-80
2024/01/08 04:14:14;;;;;;;7.80;4.50;;;-0.50;99.90;;;;;;6237901;23;20348;-80
2024/01/08 04:16:40;;;;;;;7.32;4.70;;;-0.60;99.90;;;;;;6238011;23;20270;-79
2024/01/08 04:19:06;;;;;;;6.72;4.40;;;-0.60;99.90;;;;;;6238084;23;20444;-80
2024/01/08 04:21:32;;;;;;;6.63;3.75;;;-0.60;99.90;;;;;;6237378;23;20507;-80
2024/01/08 04:23:57;;;;;;;7.30;4.50;;;-0.60;99.90;;;;;;6238322;23;20012;-79
2024/01/08 04:26:25;;;;;;;8.07;4.40;;;-0.60;99.90;;;;;;6239553;23;20020;-79
2024/01/08 04:28:51;;;;;;;9.15;5.00;;;-0.60;99.90;;;;;;6239181;23;20259;-79
2024/01/08 04:31:20;;;;;;;6.20;3.95;;;-0.60;99.90;;;;;;6236427;23;20435;-79
2024/01/08 04:33:46;;;;;;;6.85;4.22;;;-0.60;99.90;;;;;;6237650;23;20016;-80
2024/01/08 04:36:16;;;;;;;6.15;3.08;;;-0.70;99.90;;;;;;6237928;23;20020;-81
2024/01/08 04:38:44;;;;;;;8.50;4.78;;;-0.70;99.90;;;;;;6238193;23;20027;-80
2024/01/08 04:41:10;;;;;;;6.70;3.88;;;-0.70;99.90;;;;;;6237185;23;20020;-80
2024/01/08 04:43:36;;;;;;;8.05;4.32;;;-0.70;99.90;;;;;;6237730;23;20016;-80
2024/01/08 04:46:01;;;;;;;7.00;4.13;;;-0.70;99.90;;;;;;6238405;23;20012;-80
2024/01/08 04:48:27;;;;;;;6.72;4.10;;;-0.80;99.90;;;;;;6238784;23;20016;-80
2024/01/08 04:50:53;;;;;;;7.40;4.05;;;-0.80;99.90;;;;;;6238982;22;20070;-80
2024/01/08 04:53:18;;;;;;;4.93;2.80;;;-0.80;99.90;;;;;;6239852;23;20356;-80
2024/01/08 04:55:44;;;;;;;6.78;3.88;;;-0.80;99.90;;;;;;6237024;23;20052;-81
2024/01/08 04:58:09;;;;;;;5.57;3.33;;;-0.90;99.90;;;;;;6237343;23;20020;-80
2024/01/08 05:00:35;;;;;;;5.77;3.50;;;-0.90;99.90;;;;;;6237078;23;20239;-80
2024/01/08 05:03:01;;;;;;;6.97;3.60;;;-1.00;99.90;;;;;;6234812;23;20314;-80
2024/01/08 05:05:26;;;;;;;5.82;3.05;;;-1.10;99.90;;;;;;6234352;23;20247;-80
2024/01/08 05:07:52;;;;;;;4.75;3.05;;;-1.20;99.90;;;;;;6235305;23;20016;-80
2024/01/08 05:10:18;;;;;;;4.70;3.00;;;-1.30;99.90;;;;;;6236397;23;20020;-79
2024/01/08 05:12:43;;;;;;;5.13;3.00;;;-1.30;99.90;;;;;;6236064;23;20576;-80
2024/01/08 05:15:09;;;;;;;5.43;3.17;;;-1.40;99.90;;;;;;6238219;23;20012;-80
2024/01/08 05:17:35;;;;;;;6.35;3.30;;;-1.40;99.90;;;;;;6237561;23;20054;-80
2024/01/08 05:20:01;;;;;;;5.37;3.20;;;-1.50;99.90;;;;;;6236763;23;20016;-80
2024/01/08 05:22:26;;;;;;;7.30;3.28;;;-1.50;99.90;;;;;;6237751;23;20298;-80
2024/01/08 05:24:52;;;;;;;6.43;3.50;;;-1.50;99.90;;;;;;6238836;23;20020;-80
2024/01/08 05:27:17;;;;;;;5.18;3.17;;;-1.50;99.90;;;;;;6239631;23;20444;-80
2024/01/08 05:29:44;;;;;;;4.93;3.30;;;-1.60;99.90;;;;;;6238655;23;20465;-81
2024/01/08 05:32:10;;;;;;;6.20;3.50;;;-1.70;99.90;;;;;;6238411;23;20016;-79
2024/01/08 05:34:36;;;;;;;6.10;3.45;;;-1.60;99.90;;;;;;6236783;23;20049;-79
2024/01/08 05:37:02;;;;;;;7.45;3.17;;;-1.70;99.90;;;;;;6238870;23;20012;-81
2024/01/08 05:39:27;;;;;;;7.68;3.47;;;-1.70;99.90;;;;;;6240540;23;20012;-80
2024/01/08 05:41:53;;;;;;;8.57;3.53;;;-1.70;99.90;;;;;;6237834;23;20103;-80
2024/01/08 05:44:19;;;;;;;6.00;3.88;;;-1.60;99.90;;;;;;6238266;23;20393;-79
2024/01/08 05:46:45;;;;;;;6.47;4.07;;;-1.60;99.90;;;;;;6240904;23;20020;-80
2024/01/08 05:49:11;;;;;;;8.20;3.70;;;-1.60;99.90;;;;;;6238145;23;20441;-79
2024/01/08 05:51:37;;;;;;;6.03;3.20;;;-1.60;99.90;;;;;;6210513;23;20023;-80
2024/01/08 05:54:03;;;;;;;5.88;3.53;;;-1.60;99.90;;;;;;6238512;23;20012;-79
2024/01/08 05:56:31;;;;;;;7.45;3.40;;;-1.70;99.90;;;;;;6240024;23;20016;-80
2024/01/08 05:58:57;;;;;;;6.43;3.35;;;-1.70;99.90;;;;;;6238337;23;20011;-83
2024/01/08 06:01:22;;;;;;;6.85;3.97;;;-1.70;99.90;;;;;;6237140;23;20035;-78
2024/01/08 06:03:48;;;;;;;6.97;3.70;;;-1.70;99.90;;;;;;6238270;23;20367;-78
2024/01/08 06:06:14;;;;;;;5.22;3.20;;;-1.70;99.90;;;;;;6238113;23;20468;-79
2024/01/08 06:08:40;;;;;;;6.07;3.60;;;-1.80;99.90;;;;;;6237355;23;20441;-79
2024/01/08 06:11:07;;;;;;;5.75;3.95;;;-1.80;99.90;;;;;;6236580;23;20012;-80
2024/01/08 06:13:32;;;;;;;;;;;-1.80;99.90;;;;;;6239092;23;20020;-79
2024/01/08 06:15:58;;;;;;;6.38;3.70;;;-1.80;99.90;;;;;;6236314;23;19969;-79
2024/01/08 06:18:24;;;;;;;6.97;3.75;;;-1.80;99.90;;;;;;6236898;23;20375;-79
2024/01/08 06:20:50;;;;;;;7.72;4.25;;;-1.80;99.90;;;;;;6238028;23;20027;-79
2024/01/08 06:23:16;;;;;;;;;;;-1.80;99.90;;;;;;6240256;23;20078;-79
2024/01/08 06:25:42;;;;;;;8.45;3.55;;;-1.80;99.90;;;;;;6238424;23;19919;-79
2024/01/08 06:28:07;;;;;;;5.82;3.47;;;-1.80;99.90;;;;;;6237165;23;20012;-79
2024/01/08 06:30:33;;;;;;;7.22;3.70;;;-1.70;99.90;;;;;;6237881;23;20023;-78
2024/01/08 06:32:59;;;;;;;5.33;3.60;;;-1.70;99.90;;;;;;6237799;23;20012;-79
2024/01/08 06:35:24;;;;;;;7.93;3.50;;;-1.60;99.90;;;;;;6236297;23;20557;-79
2024/01/08 06:37:50;;;;;;;5.28;3.60;;;-1.50;99.90;;;;;;6237874;23;20115;-78
2024/01/08 06:40:15;;;;;;;7.35;3.40;;;-1.50;99.90;;;;;;6236826;23;20030;-79
2024/01/08 06:42:41;;;;;;;7.60;3.27;;;-1.40;99.90;;;;;;6238799;23;20022;-79
2024/01/08 06:45:07;;;;;;;10.10;3.67;;;-1.40;99.90;;;;;;6238549;23;20317;-78
2024/01/08 06:47:32;;;;;;;6.40;3.63;;;-1.30;99.90;;;;;;6237464;23;20247;-79
2024/01/08 06:49:58;;;;;;;6.05;3.58;;;-1.30;99.90;;;;;;6238142;23;20026;-78
2024/01/08 06:52:24;;;;;;;7.53;3.60;;;-1.20;99.90;;;;;;6238832;23;20464;-79
2024/01/08 06:54:50;;;;;;;7.45;3.47;;;-1.20;99.90;;;;;;6239801;23;20017;-79
2024/01/08 06:57:15;;;;;;;6.37;3.57;;;-1.20;99.90;;;;;;6236118;23;20043;-79
2024/01/08 06:59:41;;;;;;;6.53;3.20;;;-1.10;99.90;;;;;;6238177;23;20239;-79
2024/01/08 07:02:06;;;;;;;8.63;3.27;;;-1.00;99.90;;;;;;6234817;23;20025;-78
2024/01/08 07:04:32;;;;;;;7.97;3.58;;;-1.00;99.90;;;;;;6238907;23;20012;-78
2024/01/08 07:06:58;;;;;;;5.93;3.30;;;-1.00;99.90;;;;;;6236474;23;20024;-79
2024/01/08 07:09:25;;;;;;;6.35;3.85;;;-1.00;99.90;;;;;;6237792;23;20449;-80
2024/01/08 07:11:51;;;;;;;6.90;3.35;;;-1.00;99.90;;;;;;6237704;23;20020;-79
2024/01/08 07:14:17;;;;;;;9.18;3.80;;;-1.00;99.90;;;;;;6237532;23;20116;-79
2024/01/08 07:16:42;;;;;;;8.00;3.28;;;-0.90;99.90;;;;;;6237094;23;20027;-78
2024/01/08 07:19:08;;;;;;;6.55;3.28;;;-0.90;99.90;;;;;;6238304;23;20015;-77
2024/01/08 07:21:34;;;;;;;10.05;3.33;;;-0.90;99.90;;;;;;6239038;23;20091;-78
2024/01/08 07:23:59;;;;;;;7.13;3.95;;;-0.90;99.90;;;;;;6239175;23;20023;-81
2024/01/08 07:26:25;;;;;;;9.63;3.50;;;-0.90;99.90;;;;;;6237928;23;20019;-80
2024/01/08 07:28:51;;;;;;;8.27;3.42;;;-0.90;99.90;;;;;;6238342;23;20024;-80
2024/01/08 07:31:16;;;;;;;6.82;3.67;;;-0.90;99.90;;;;;;6238387;23;20020;-80
2024/01/08 07:33:42;;;;;;;6.32;3.38;;;-0.80;99.90;;;;;;6237845;23;20005;-80
2024/01/08 07:36:09;;;;;;;7.80;3.50;;;-0.80;99.90;;;;;;6237808;23;20087;-79
2024/01/08 07:38:34;;;;;;;6.53;3.15;;;-0.80;99.90;;;;;;6237765;23;20020;-80
2024/01/08 07:41:00;;;;;;;7.32;3.33;;;-0.80;99.90;;;;;;6236983;23;20110;-80
2024/01/08 07:43:26;;;;;;;7.47;3.17;;;-0.70;99.90;;;;;;6238738;23;20012;-80
2024/01/08 07:45:52;;;;;;;;;;;-0.80;99.90;;;;;;6240130;23;20516;-80
2024/01/08 07:48:18;;;;;;;7.57;4.18;;;-0.70;99.90;;;;;;6238774;23;19938;-80
2024/01/08 07:50:45;;;;;;;6.88;3.45;;;-0.70;99.90;;;;;;6237238;23;20159;-80
2024/01/08 07:53:10;;;;;;;7.00;3.33;;;-0.70;99.90;;;;;;6239508;23;20020;-80
2024/01/08 07:55:36;;;;;;;10.47;3.43;;;-0.70;99.90;;;;;;6212582;23;20110;-80
2024/01/08 07:58:02;;;;;;;7.65;3.53;;;-0.70;99.90;;;;;;6235887;23;21027;-79
2024/01/08 08:00:28;;;;;;;9.98;3.55;;;-0.60;99.90;;;;;;6237997;23;20018;-80
2024/01/08 08:02:54;;;;;;;7.85;3.92;;;-0.60;99.90;;;;;;6237505;23;20016;-81
2024/01/08 08:05:19;;;;;;;7.80;3.30;;;-0.60;99.90;;;;;;6237675;23;20008;-80
2024/01/08 08:07:45;;;;;;;8.17;3.77;;;-0.60;99.90;;;;;;6236168;23;20023;-78
2024/01/08 08:10:11;;;;;;;8.02;3.30;;;-0.50;99.90;;;;;;6240416;23;20020;-78
2024/01/08 08:12:37;;;;;;;9.45;3.30;;;-0.50;99.90;;;;;;6236726;23;20031;-79
2024/01/08 08:15:03;;;;;;;8.10;3.55;;;-0.50;99.90;;;;;;6212979;23;20008;-79
2024/01/08 08:17:30;;;;;;;;;;;-0.50;99.90;;;;;;6236780;23;20024;-79
2024/01/08 08:19:55;;;;;;;8.15;2.97;;;-0.40;99.90;;;;;;6241004;23;19915;-79
2024/01/08 08:22:21;;;;;;;6.13;3.03;;;-0.40;99.90;;;;;;6212879;23;20087;-79
2024/01/08 08:24:47;;;;;;;5.78;3.10;;;-0.40;99.90;;;;;;6237066;23;20019;-79
2024/01/08 08:27:13;;;;;;;7.57;3.05;;;-0.40;99.90;;;;;;6235129;23;20071;-79
2024/01/08 08:29:42;;;;;;;8.05;3.00;;;-0.30;99.90;;;;;;6237043;23;20016;-79
2024/01/08 08:32:08;;;;;;;5.60;2.88;;;-0.30;99.90;;;;;;6233920;23;20022;-80
2024/01/08 08:34:35;;;;;;;6.18;2.92;;;-0.30;99.90;;;;;;6235214;23;20016;-80
2024/01/08 08:37:00;;;;;;;10.57;2.90;;;-0.30;99.90;;;;;;6238359;23;20465;-81
2024/01/08 08:39:26;;;;;;;10.20;2.90;;;-0.30;99.90;;;;;;6237072;23;20027;-79
2024/01/08 08:41:52;;;;;;;4.30;2.42;;;-0.30;99.90;;;;;;6209496;23;20407;-81
2024/01/08 08:44:18;;;;;;;4.75;2.15;;;-0.30;99.90;;;;;;6212949;23;20027;-81
2024/01/08 08:46:44;;;;;;;6.18;3.00;;;-0.30;99.90;;;;;;6239283;23;20018;-80
2024/01/08 08:49:12;;;;;;;7.13;3.40;;;-0.30;99.90;;;;;;6237093;23;20024;-81
2024/01/08 08:51:37;;;;;;;5.15;2.55;;;-0.20;99.90;;;;;;6227114;23;20016;-81
2024/01/08 08:54:04;;;;;;;8.52;3.15;;;-0.20;99.90;;;;;;6235699;23;20066;-81
2024/01/08 08:56:33;;;;;;;6.30;2.47;;;-0.20;99.90;;;;;;6239199;23;20016;-80
2024/01/08 08:59:00;;;;;;;6.75;3.28;;;-0.20;99.90;;;;;;6246814;23;20468;-81
2024/01/08 09:01:26;;;;;;;;;;;-0.10;99.90;;;;;;6216311;23;20008;-80
2024/01/08 09:03:54;;;;;;;5.25;2.72;;;-0.10;99.90;;;;;;6215448;23;19915;-81
2024/01/08 09:06:23;;;;;;;6.47;2.67;;;-0.10;99.90;;;;;;6244960;23;20020;-80
2024/01/08 09:08:49;;;;;;;6.72;3.38;;;-0.10;99.90;;;;;;6240396;23;20027;-80
2024/01/08 09:11:15;;;;;;;4.95;2.75;;;-0.10;99.90;;;;;;6241709;23;20083;-81
2024/01/08 09:13:42;;;;;;;4.97;2.80;;;-0.10;99.90;;;;;;6248086;23;20019;-81
2024/01/08 09:16:10;;;;;;;7.03;2.63;;;-0.10;99.90;;;;;;6243330;23;20020;-80
2024/01/08 09:18:36;;;;;;;8.02;3.40;;;0.00;99.90;;;;;;6240866;23;20131;-80
2024/01/08 09:21:01;;;;;;;6.20;2.70;;;0.00;99.90;;;;;;6209305;23;20039;-80
2024/01/08 09:23:27;;;;;;;6.70;2.85;;;0.00;99.90;;;;;;6239091;23;20100;-80
2024/01/08 09:25:52;;;;;;;6.80;2.90;;;0.00;99.90;;;;;;6239694;23;20230;-80
2024/01/08 09:28:18;;;;;;;6.20;2.77;;;0.00;99.90;;;;;;6240105;23;20247;-81
2024/01/08 09:30:44;;;;;;;6.20;2.90;;;0.00;99.90;;;;;;6214096;23;20231;-82
2024/01/08 09:33:10;;;;;;;8.30;2.88;;;0.00;99.90;;;;;;6241011;23;20106;-82
2024/01/08 09:35:36;;;;;;;8.52;4.35;;;0.10;99.90;;;;;;6239638;23;20016;-81
2024/01/08 09:38:02;;;;;;;6.57;2.50;;;0.10;99.90;;;;;;6239699;23;20345;-82
2024/01/08 09:40:28;;;;;;;4.32;1.90;;;0.10;99.90;;;;;;6238904;23;20016;-80
2024/01/08 09:42:55;;;;;;;5.90;2.35;;;0.10;99.90;;;;;;6238680;23;20019;-80
2024/01/08 09:45:26;;;;;;;5.63;2.47;;;0.10;99.90;;;;;;6214337;23;20023;-80
2024/01/08 09:47:53;;;;;;;5.25;1.90;;;0.10;99.90;;;;;;6238638;23;20020;-80
2024/01/08 09:50:19;;;;;;;;;;;0.20;99.90;;;;;;6240455;22;20016;-80
2024/01/08 09:52:45;;;;;;;6.05;2.08;;;0.30;99.90;;;;;;6236264;23;20593;-80
2024/01/08 09:55:11;;;;;;;3.28;1.98;;;0.30;99.90;;;;;;6237233;23;20016;-81
2024/01/08 09:57:37;;;;;;;;;;;0.30;99.90;;;;;;6237139;23;20039;-81
2024/01/08 10:00:04;;;;;;;4.70;2.13;;;0.30;99.90;;;;;;6238474;23;19927;-80
2024/01/08 10:02:30;;;;;;;4.53;2.25;;;0.30;99.90;;;;;;6213597;23;20055;-80
2024/01/08 10:04:55;;;;;;;4.00;2.20;;;0.20;99.90;;;;;;6239919;23;20008;-80
2024/01/08 10:07:22;;;;;;;5.63;2.55;;;0.20;99.90;;;;;;6238509;23;20035;-80
2024/01/08 10:09:47;;;;;;;3.90;2.10;;;0.30;99.90;;;;;;6236911;23;20012;-80
2024/01/08 10:12:14;;;;;;;4.97;2.80;;;0.30;99.90;;;;;;6234977;23;20023;-80
2024/01/08 10:14:40;;;;;;;5.53;2.40;;;0.30;99.90;;;;;;6212030;23;20247;-80
2024/01/08 10:17:06;;;;;;;4.10;2.10;;;0.30;99.90;;;;;;6234913;23;20044;-80
2024/01/08 10:19:31;;;;;;;4.90;2.63;;;0.30;99.90;;;;;;6237377;23;20074;-80
2024/01/08 10:22:10;;;;;;;4.97;2.20;;;0.30;99.90;;;;;;6237798;23;20607;-80
2024/01/08 10:24:38;;;;;;;5.65;2.25;;;0.30;99.90;;;;;;6237735;23;20391;-82
2024/01/08 10:27:04;;;;;;;4.68;2.40;;;0.30;99.90;;;;;;6237753;23;20775;-83
2024/01/08 10:29:30;;;;;;;3.90;2.30;;;0.30;99.90;;;;;;6241205;23;20027;-84
2024/01/08 10:31:56;;;;;;;3.70;2.35;;;0.30;99.90;;;;;;6239441;23;20016;-84
2024/01/08 10:34:23;;;;;;;5.43;2.25;;;0.40;99.90;;;;;;6240375;23;20043;-83
2024/01/08 10:36:51;;;;;;;5.35;2.33;;;0.40;99.90;;;;;;6238710;23;20023;-83
2024/01/08 10:39:18;;;;;;;6.15;2.92;;;0.50;99.90;;;;;;6239202;23;20013;-83
2024/01/08 10:41:43;;;;;;;5.70;2.42;;;0.50;99.90;;;;;;6235988;23;20083;-84
2024/01/08 10:44:09;;;;;;;4.03;2.28;;;0.60;99.90;;;;;;6240379;23;20047;-84
2024/01/08 10:46:44;;;;;;;5.97;2.63;;;0.60;99.90;;;;;;6238991;23;20056;-84
2024/01/08 10:49:18;;;;;;;7.95;2.97;;;0.60;99.90;;;;;;6238523;22;20023;-83
2024/01/08 10:51:48;;;;;;;5.25;2.72;;;0.60;99.90;;;;;;6237742;23;20020;-84
2024/01/08 10:54:18;;;;;;;5.57;2.60;;;0.60;99.90;;;;;;6238662;23;20445;-84
2024/01/08 10:56:47;;;;;;;5.00;2.67;;;0.60;99.90;;;;;;6238149;23;20016;-81
2024/01/08 10:59:22;;;;;;;6.05;2.55;;;0.60;99.90;;;;;;6237040;23;20071;-81
2024/01/08 11:01:49;;;;;;;4.90;2.28;;;0.60;99.90;;;;;;6236542;23;20095;-81
2024/01/08 11:04:14;;;;;;;4.90;2.22;;;0.60;99.90;;;;;;6238031;23;20012;-81
2024/01/08 11:06:41;;;;;;;4.28;2.17;;;0.70;99.90;;;;;;6235537;23;20020;-81
2024/01/08 11:09:25;;;;;;;3.58;2.30;;;0.70;99.90;;;;;;6240208;23;20490;-80
2024/01/08 11:11:50;;;;;;;4.20;2.33;;;0.80;99.90;;;;;;6235993;23;20040;-80
2024/01/08 11:14:17;;;;;;;4.03;2.40;;;0.90;99.90;;;;;;6240083;23;20035;-80
2024/01/08 11:16:43;;;;;;;4.35;2.10;;;1.10;99.90;;;;;;6212150;23;20030;-80
2024/01/08 11:19:17;;;;;;;4.95;2.28;;;1.40;99.90;;;;;;6209250;23;20066;-80
2024/01/08 11:22:04;;;;;;;3.75;2.50;;;1.40;99.90;;;;;;6237512;23;20016;-80
2024/01/08 11:24:29;;;;;;;3.38;2.20;;;1.20;99.90;;;;;;6226216;23;20024;-81
2024/01/08 11:26:55;;;;;;;4.30;2.20;;;1.20;99.90;;;;;;6238124;23;20016;-80
2024/01/08 11:29:21;;;;;;;6.05;2.50;;;1.10;99.90;;;;;;6238064;23;20035;-80
2024/01/08 11:31:49;;;;;;;4.43;2.20;;;1.10;99.90;;;;;;6240267;23;20101;-80
2024/01/08 11:34:30;;;;;;;4.40;2.17;;;1.10;99.90;;;;;;6238005;23;20053;-80
2024/01/08 11:37:21;;;;;;;4.88;2.17;;;1.10;99.90;;;;;;6239301;23;20027;-80
2024/01/08 11:39:49;;;;;;;6.75;2.33;;;1.00;99.90;;;;;;6236267;22;20027;-81
2024/01/08 11:42:15;;;;;;;3.53;2.13;;;1.00;99.90;;;;;;6239017;23;20429;-80
2024/01/08 11:44:41;;;;;;;5.07;2.60;;;0.90;99.90;;;;;;6240153;23;20012;-80
2024/01/08 11:47:06;;;;;;;3.95;2.50;;;0.90;99.90;;;;;;6237967;23;20024;-80
2024/01/08 11:49:32;;;;;;;3.70;1.77;;;0.90;99.90;;;;;;6237929;23;20023;-81
2024/01/08 11:52:04;;;;;;;6.75;2.33;;;0.80;99.90;;;;;;6269440;22;20083;-81
2024/01/08 11:54:30;;;;;;;5.43;2.42;;;1.20;99.90;;;;;;6270426;22;20038;-81
2024/01/08 11:56:56;;;;;;;4.27;2.17;;;1.40;99.90;;;;;;6269770;22;20388;-81
2024/01/08 11:59:31;;;;;;;4.47;1.65;;;1.40;99.90;;;;;;6269844;22;20238;-81
2024/01/08 12:02:23;;;;;;;4.60;2.03;;;1.40;99.90;;;;;;6270543;22;20340;-81
2024/01/08 12:04:54;;;;;;;4.20;2.33;;;1.20;99.90;;;;;;6241113;22;20432;-81
2024/01/08 12:07:21;;;;;;;5.95;2.22;;;1.30;99.90;;;;;;6270416;22;20432;-82
2024/01/08 12:09:48;;;;;;;4.07;2.10;;;1.40;99.90;;;;;;6242015;22;20094;-80
2024/01/08 12:12:13;;;;;;;;;;;1.40;99.90;;;;;;6242431;22;20015;-80
2024/01/08 12:14:40;;;;;;;8.05;2.40;;;1.50;99.90;;;;;;6269383;22;19917;-81
2024/01/08 12:17:06;;;;;;;5.35;2.42;;;1.60;99.90;;;;;;6242314;22;20016;-82
2024/01/08 12:19:44;;;;;;;6.05;1.98;;;1.70;99.90;;;;;;6239547;22;20433;-81
2024/01/08 12:22:14;;;;;;;5.15;2.40;;;1.80;99.90;;;;;;6240624;22;20380;-81
2024/01/08 12:24:47;;;;;;;4.80;2.15;;;1.90;99.90;;;;;;6266928;22;20230;-82
2024/01/08 12:27:17;;;;;;;5.75;2.47;;;2.10;99.90;;;;;;6239309;22;20262;-81
2024/01/08 12:29:44;;;;;;;6.25;2.38;;;2.20;99.90;;;;;;6240503;22;20106;-80
2024/01/08 12:32:19;;;;;;;4.07;2.15;;;1.90;99.90;;;;;;6238169;22;20479;-81
2024/01/08 12:34:45;;;;;;;4.30;2.28;;;1.90;99.90;;;;;;6268422;22;20375;-81
2024/01/08 12:37:12;;;;;;;4.25;2.03;;;1.90;99.90;;;;;;6241700;22;20016;-79
2024/01/08 12:39:38;;;;;;;4.20;2.15;;;1.80;99.90;;;;;;6241337;22;20103;-80
2024/01/08 12:42:14;;;;;;;4.07;2.30;;;1.50;99.90;;;;;;6218210;22;20378;-80
2024/01/08 12:44:41;;;;;;;5.60;2.40;;;1.30;99.90;;;;;;6218476;22;20527;-81
2024/01/08 12:47:07;;;;;;;4.70;2.35;;;1.30;99.90;;;;;;6270744;22;20099;-81
2024/01/08 12:49:36;;;;;;;4.38;2.58;;;1.20;99.90;;;;;;6240021;22;20348;-80